Time;durP1;ratioP1;P1;durP2;ratioP2;P2;SDS_P1;SDS_P2;PMS_P1;PMS_P2;Temp;Humidity;BMP_temperature;BMP_pressure;BME280_temperature;BME280_humidity;BME280_pressure;Samples;Min_cycle;Max_cycle;Signal;HPM_P1;HPM_P2
2020/12/11 01:30:19;;;;;;;19.50;10.53;;;-0.20;99.90;;;;;;5085973;27;20277;-67
2020/12/11 01:32:45;;;;;;;45.57;17.27;;;-0.20;99.90;;;;;;5086572;28;20184;-67
2020/12/11 01:35:10;;;;;;;32.93;12.70;;;-0.30;99.90;;;;;;5086094;28;20535;-67
2020/12/11 01:37:36;;;;;;;26.07;10.20;;;-0.20;99.90;;;;;;5086287;28;20252;-67
2020/12/11 01:40:03;;;;;;;38.20;13.73;;;-0.20;99.90;;;;;;5085865;28;20279;-67
2020/12/11 01:42:29;;;;;;;39.60;15.30;;;-0.20;99.90;;;;;;5084206;22;20221;-61
2020/12/11 01:44:54;;;;;;;26.43;11.20;;;-0.20;99.90;;;;;;5065605;28;20188;-62
2020/12/11 01:47:24;;;;;;;36.47;13.83;;;-0.20;99.90;;;;;;5065941;28;20165;-62
2020/12/11 01:49:51;;;;;;;29.90;11.90;;;-0.20;99.90;;;;;;5065289;28;20200;-62
2020/12/11 01:52:18;;;;;;;22.07;9.53;;;-0.20;99.90;;;;;;5065864;28;20532;-61
2020/12/11 01:54:44;;;;;;;32.77;11.43;;;-0.30;99.90;;;;;;5066277;28;20216;-61
2020/12/11 01:57:19;;;;;;;50.97;20.80;;;-0.30;99.90;;;;;;5065609;28;20186;-63
2020/12/11 01:59:48;;;;;;;17.43;9.13;;;-0.30;99.90;;;;;;5065001;28;20306;-62
2020/12/11 02:02:13;;;;;;;17.47;6.50;;;-0.30;99.90;;;;;;5047423;28;20558;-62
2020/12/11 02:04:39;;;;;;;35.13;12.37;;;-0.30;99.90;;;;;;5065677;28;20181;-62
2020/12/11 02:07:05;;;;;;;41.63;17.70;;;-0.30;99.90;;;;;;5065548;28;20621;-62
2020/12/11 02:09:32;;;;;;;38.67;17.27;;;-0.20;99.90;;;;;;5066022;28;20246;-62
2020/12/11 02:11:58;;;;;;;40.47;17.00;;;-0.20;99.90;;;;;;5065059;28;20669;-62
2020/12/11 02:14:23;;;;;;;37.10;16.93;;;-0.20;99.90;;;;;;5065137;28;20173;-62
2020/12/11 02:16:49;;;;;;;33.93;14.80;;;-0.20;99.90;;;;;;5065491;28;20176;-62
2020/12/11 02:19:15;;;;;;;41.47;17.50;;;-0.10;99.90;;;;;;5065181;28;20185;-62
2020/12/11 02:21:40;;;;;;;19.87;9.33;;;-0.10;99.90;;;;;;5064724;28;20280;-62
2020/12/11 02:24:06;;;;;;;39.47;17.37;;;-0.20;99.90;;;;;;5064836;28;20219;-62
2020/12/11 02:26:32;;;;;;;35.43;15.53;;;-0.20;99.90;;;;;;5064850;28;20173;-62
2020/12/11 02:28:57;;;;;;;40.77;16.87;;;-0.20;99.90;;;;;;5065055;28;20193;-62
2020/12/11 02:31:23;;;;;;;31.40;13.10;;;-0.10;99.90;;;;;;5064464;28;20602;-63
2020/12/11 02:33:48;;;;;;;40.10;17.33;;;-0.10;99.90;;;;;;5064764;28;20173;-62
2020/12/11 02:36:18;;;;;;;40.27;15.73;;;-0.10;99.90;;;;;;5064929;28;20261;-62
2020/12/11 02:38:44;;;;;;;15.67;9.20;;;-0.10;99.90;;;;;;5064492;28;20260;-62
2020/12/11 02:41:09;;;;;;;36.10;12.83;;;-0.20;99.90;;;;;;5054095;28;20304;-62
2020/12/11 02:43:37;;;;;;;45.13;17.07;;;-0.10;99.90;;;;;;5051832;28;20216;-62
2020/12/11 02:46:04;;;;;;;44.30;16.80;;;-0.10;99.90;;;;;;5051779;28;20201;-62
2020/12/11 02:48:29;;;;;;;40.50;17.40;;;-0.10;99.90;;;;;;5051781;28;20255;-62
2020/12/11 02:50:56;;;;;;;40.87;15.77;;;0.00;99.90;;;;;;5051590;28;20666;-62
2020/12/11 02:53:22;;;;;;;43.27;19.17;;;0.00;99.90;;;;;;5051541;28;20224;-61
2020/12/11 02:55:48;;;;;;;35.73;14.80;;;-0.10;99.90;;;;;;5051641;28;20166;-61
2020/12/11 02:58:13;;;;;;;33.50;12.30;;;-0.10;99.90;;;;;;5051543;28;20174;-62
2020/12/11 03:00:38;;;;;;;27.77;10.33;;;-0.10;99.90;;;;;;5050887;28;20217;-62
2020/12/11 03:03:04;;;;;;;27.27;11.50;;;-0.10;99.90;;;;;;5051259;28;20169;-62
2020/12/11 03:05:29;;;;;;;27.90;10.83;;;-0.20;99.90;;;;;;5050970;28;20256;-62
2020/12/11 03:07:55;;;;;;;28.83;12.17;;;-0.20;99.90;;;;;;5050442;28;20231;-62
2020/12/11 03:10:20;;;;;;;45.10;17.30;;;-0.20;99.90;;;;;;5050679;28;20695;-63
2020/12/11 03:12:46;;;;;;;35.60;14.50;;;-0.20;99.90;;;;;;5050819;28;20201;-62
2020/12/11 03:15:11;;;;;;;46.27;19.63;;;-0.20;99.90;;;;;;5050921;28;20676;-61
2020/12/11 03:17:37;;;;;;;48.10;19.30;;;-0.20;99.90;;;;;;5050964;28;20177;-62
2020/12/11 03:20:03;;;;;;;37.10;16.00;;;-0.10;99.90;;;;;;5050933;28;20193;-60
2020/12/11 03:22:28;;;;;;;38.33;16.60;;;-0.10;99.90;;;;;;5050440;28;20225;-62
2020/12/11 03:24:53;;;;;;;32.47;13.07;;;-0.10;99.90;;;;;;5050716;28;20178;-61
2020/12/11 03:27:19;;;;;;;42.70;16.80;;;-0.10;99.90;;;;;;5050629;28;20189;-62
2020/12/11 03:29:44;;;;;;;49.37;19.23;;;-0.10;99.90;;;;;;5050695;28;20201;-62
2020/12/11 03:32:10;;;;;;;37.70;13.33;;;-0.10;99.90;;;;;;5032397;28;20189;-61
2020/12/11 03:34:35;;;;;;;38.33;15.87;;;-0.20;99.90;;;;;;5050807;28;20185;-62
2020/12/11 03:37:01;;;;;;;29.30;11.80;;;-0.20;99.90;;;;;;5050466;28;20533;-62
2020/12/11 03:39:26;;;;;;;37.77;15.73;;;-0.20;99.90;;;;;;5050173;28;20204;-62
2020/12/11 03:41:53;;;;;;;13.87;6.30;;;-0.20;99.90;;;;;;5049847;28;20216;-62
2020/12/11 03:44:18;;;;;;;42.33;16.73;;;-0.20;99.90;;;;;;5050408;28;20196;-62
2020/12/11 03:46:44;;;;;;;42.50;15.20;;;-0.20;99.90;;;;;;5050407;28;20177;-62
2020/12/11 03:49:10;;;;;;;20.40;8.07;;;-0.20;99.90;;;;;;5050456;28;20197;-62
2020/12/11 03:51:35;;;;;;;29.60;10.20;;;-0.20;99.90;;;;;;5049073;28;20217;-62
2020/12/11 03:54:01;;;;;;;20.33;9.30;;;-0.20;99.90;;;;;;5049741;28;20253;-62
2020/12/11 03:56:27;;;;;;;15.77;7.30;;;-0.20;99.90;;;;;;5050187;28;20193;-60
2020/12/11 03:58:52;;;;;;;20.63;10.33;;;-0.20;99.90;;;;;;5050239;28;20170;-62
2020/12/11 04:01:18;;;;;;;33.67;15.70;;;-0.30;99.90;;;;;;5049707;28;20665;-62
2020/12/11 04:03:43;;;;;;;27.93;11.87;;;-0.30;99.90;;;;;;5050354;28;20177;-61
2020/12/11 04:06:10;;;;;;;43.80;15.83;;;-0.30;99.90;;;;;;5050031;28;20664;-62
2020/12/11 04:08:37;;;;;;;33.73;12.83;;;-0.20;99.90;;;;;;5049810;28;20259;-62
2020/12/11 04:11:07;;;;;;;24.93;11.00;;;-0.20;99.90;;;;;;5049852;28;20198;-62
2020/12/11 04:13:33;;;;;;;37.43;17.80;;;-0.30;99.90;;;;;;5049484;28;20189;-62
2020/12/11 04:15:59;;;;;;;28.57;12.17;;;-0.20;99.90;;;;;;5049744;28;20668;-62
2020/12/11 04:18:25;;;;;;;20.33;8.97;;;-0.20;99.90;;;;;;5049259;28;20664;-62
2020/12/11 04:20:50;;;;;;;34.03;14.20;;;-0.20;99.90;;;;;;5049675;28;20198;-62
2020/12/11 04:23:16;;;;;;;43.90;17.53;;;-0.20;99.90;;;;;;5050071;28;20562;-62
2020/12/11 04:25:41;;;;;;;12.17;6.23;;;-0.20;99.90;;;;;;5049922;28;20184;-60
2020/12/11 04:28:07;;;;;;;36.77;13.10;;;-0.20;99.90;;;;;;5049584;28;20204;-62
2020/12/11 04:30:32;;;;;;;34.13;14.07;;;-0.20;99.90;;;;;;5049262;28;20257;-62
2020/12/11 04:32:58;;;;;;;30.53;10.97;;;-0.20;99.90;;;;;;5049563;28;20185;-62
2020/12/11 04:35:23;;;;;;;26.43;12.87;;;-0.20;99.90;;;;;;5049238;28;20634;-62
2020/12/11 04:37:50;;;;;;;42.17;18.13;;;-0.20;99.90;;;;;;5049359;28;20329;-61
2020/12/11 04:40:16;;;;;;;33.20;14.30;;;-0.30;99.90;;;;;;5048854;28;20181;-62
2020/12/11 04:42:45;;;;;;;28.67;12.20;;;-0.20;99.90;;;;;;5049511;28;20217;-62
2020/12/11 04:45:11;;;;;;;29.13;13.03;;;-0.20;99.90;;;;;;5049399;28;20267;-60
2020/12/11 04:47:42;;;;;;;46.20;17.60;;;-0.20;99.90;;;;;;5048991;28;20190;-60
2020/12/11 04:50:09;;;;;;;29.90;12.70;;;-0.20;99.90;;;;;;5048480;28;20209;-61
2020/12/11 04:52:37;;;;;;;27.20;13.03;;;-0.20;99.90;;;;;;5048459;28;20589;-61
2020/12/11 04:55:03;;;;;;;48.57;19.93;;;-0.20;99.90;;;;;;5049278;28;20680;-61
2020/12/11 04:57:32;;;;;;;46.23;16.40;;;-0.20;99.90;;;;;;5049560;28;20717;-62
2020/12/11 04:59:58;;;;;;;54.80;19.90;;;-0.20;99.90;;;;;;5046377;28;20469;-62
2020/12/11 05:02:26;;;;;;;35.63;15.73;;;-0.20;99.90;;;;;;5031196;28;20197;-62
2020/12/11 05:04:55;;;;;;;46.00;18.60;;;-0.20;99.90;;;;;;5030782;28;20205;-61
2020/12/11 05:07:20;;;;;;;36.77;12.43;;;-0.20;99.90;;;;;;5031522;28;20173;-62
2020/12/11 05:09:58;;;;;;;50.43;19.47;;;-0.20;99.90;;;;;;5014789;28;20197;-61
2020/12/11 05:12:24;;;;;;;20.33;10.00;;;-0.20;99.90;;;;;;5048488;28;20255;-62
2020/12/11 05:15:01;;;;;;;38.83;14.43;;;-0.20;99.90;;;;;;5048912;28;20178;-61
2020/12/11 05:17:32;;;;;;;45.47;17.23;;;-0.30;99.90;;;;;;5049266;28;20165;-61
2020/12/11 05:19:59;;;;;;;29.17;11.43;;;-0.20;99.90;;;;;;5049124;28;20267;-63
2020/12/11 05:22:31;;;;;;;45.33;18.00;;;-0.20;99.90;;;;;;5030758;28;20696;-62
2020/12/11 05:24:57;;;;;;;30.73;14.10;;;-0.20;99.90;;;;;;5030993;28;20707;-62
2020/12/11 05:27:38;;;;;;;35.03;17.07;;;-0.20;99.90;;;;;;5049359;28;20178;-63
2020/12/11 05:30:07;;;;;;;42.87;17.10;;;-0.30;99.90;;;;;;5031224;28;20288;-63
2020/12/11 05:32:40;;;;;;;24.60;10.70;;;-0.20;99.90;;;;;;5049122;28;20280;-63
2020/12/11 05:35:19;;;;;;;24.83;12.67;;;-0.20;99.90;;;;;;5049190;28;20170;-62
2020/12/11 05:37:50;;;;;;;26.23;13.37;;;-0.30;99.90;;;;;;5049297;28;20169;-61
2020/12/11 05:40:17;;;;;;;26.63;10.47;;;-0.30;99.90;;;;;;5048648;28;20610;-61
2020/12/11 05:42:42;;;;;;;45.87;18.00;;;-0.30;99.90;;;;;;5048780;28;20205;-63
2020/12/11 05:45:18;;;;;;;27.97;11.80;;;-0.30;99.90;;;;;;5049062;28;20250;-62
2020/12/11 05:47:44;;;;;;;41.40;14.57;;;-0.30;99.90;;;;;;5049696;28;20204;-62
2020/12/11 05:50:10;;;;;;;26.30;10.20;;;-0.30;99.90;;;;;;5048811;28;20205;-61
2020/12/11 05:52:35;;;;;;;30.43;14.17;;;-0.30;99.90;;;;;;5048368;28;20728;-61
2020/12/11 05:55:01;;;;;;;37.37;16.50;;;-0.30;99.90;;;;;;5048318;28;20178;-62
2020/12/11 05:57:31;;;;;;;30.47;11.83;;;-0.30;99.90;;;;;;5048390;28;20639;-62
2020/12/11 05:59:56;;;;;;;44.57;18.20;;;-0.20;99.90;;;;;;5048352;28;20351;-62
2020/12/11 06:02:25;;;;;;;42.70;18.30;;;-0.20;99.90;;;;;;5048027;28;20285;-62
2020/12/11 06:04:54;;;;;;;32.67;13.70;;;-0.20;99.90;;;;;;5048242;28;20174;-62
2020/12/11 06:07:25;;;;;;;39.47;16.67;;;-0.20;99.90;;;;;;5047897;28;20277;-60
2020/12/11 06:09:51;;;;;;;36.50;13.87;;;-0.20;99.90;;;;;;5048145;28;20822;-60
2020/12/11 06:12:27;;;;;;;32.37;13.73;;;-0.20;99.90;;;;;;5047980;28;20212;-60
2020/12/11 06:15:34;;;;;;;28.00;12.03;;;-0.30;99.90;;;;;;5048607;28;20193;-62
2020/12/11 06:18:23;;;;;;;28.03;12.97;;;-0.30;99.90;;;;;;5034065;28;20657;-62
2020/12/11 06:20:53;;;;;;;26.47;12.43;;;-0.30;99.90;;;;;;5034265;28;20673;-62
2020/12/11 06:23:24;;;;;;;29.10;13.10;;;-0.20;99.90;;;;;;5051836;28;20178;-61
2020/12/11 06:25:51;;;;;;;55.83;19.37;;;-0.20;99.90;;;;;;5051520;28;20170;-61
2020/12/11 06:28:35;;;;;;;40.87;16.13;;;-0.20;99.90;;;;;;5051324;28;20711;-62
2020/12/11 06:31:16;;;;;;;31.97;12.20;;;-0.20;99.90;;;;;;5051364;28;20182;-62
2020/12/11 06:33:54;;;;;;;35.77;14.67;;;-0.30;99.90;;;;;;5051881;28;20177;-61
2020/12/11 06:36:20;;;;;;;42.00;16.43;;;-0.20;99.90;;;;;;5051680;28;20200;-61
2020/12/11 06:38:48;;;;;;;21.40;10.67;;;-0.20;99.90;;;;;;5051761;28;20646;-61
2020/12/11 06:41:34;;;;;;;41.83;20.13;;;-0.20;99.90;;;;;;5034656;28;20209;-62
2020/12/11 06:44:15;;;;;;;39.93;15.93;;;-0.10;99.90;;;;;;5051751;28;20211;-61
2020/12/11 06:46:40;;;;;;;24.83;11.00;;;-0.20;99.90;;;;;;5051759;28;20692;-62
2020/12/11 06:49:10;;;;;;;52.53;21.63;;;-0.20;99.90;;;;;;5051855;28;20201;-61
2020/12/11 06:51:45;;;;;;;41.00;16.90;;;-0.10;99.90;;;;;;5052221;28;20192;-62
2020/12/11 06:54:23;;;;;;;25.83;13.13;;;-0.10;99.90;;;;;;5052081;28;20207;-60
2020/12/11 06:56:50;;;;;;;23.83;11.13;;;-0.20;99.90;;;;;;5052077;28;20656;-60
2020/12/11 06:59:26;;;;;;;29.00;14.90;;;-0.10;99.90;;;;;;5051522;28;20200;-63
2020/12/11 07:02:17;;;;;;;18.37;9.20;;;0.00;99.90;;;;;;5051234;28;20193;-62
2020/12/11 07:04:44;;;;;;;29.03;14.00;;;-0.10;99.90;;;;;;5050971;28;20227;-66
2020/12/11 07:07:10;;;;;;;24.57;11.83;;;-0.10;99.90;;;;;;5031910;28;20236;-63
2020/12/11 07:09:40;;;;;;;21.13;10.77;;;-0.10;99.90;;;;;;5050824;28;20194;-63
2020/12/11 07:12:06;;;;;;;27.67;13.87;;;-0.20;99.90;;;;;;5050858;28;20208;-63
2020/12/11 07:14:31;;;;;;;22.10;10.40;;;-0.10;99.90;;;;;;5051039;28;20757;-63
2020/12/11 07:16:57;;;;;;;17.73;9.37;;;-0.10;99.90;;;;;;5051957;28;20170;-63
2020/12/11 07:19:23;;;;;;;19.80;9.77;;;-0.10;99.90;;;;;;5033376;28;20170;-64
2020/12/11 07:21:49;;;;;;;26.03;11.80;;;-0.10;99.90;;;;;;5051648;28;20197;-63
2020/12/11 07:24:15;;;;;;;18.00;10.93;;;-0.10;99.90;;;;;;5050870;28;20189;-63
2020/12/11 07:26:41;;;;;;;17.23;9.33;;;-0.10;99.90;;;;;;5051355;28;20550;-63
2020/12/11 07:29:13;;;;;;;23.67;12.13;;;0.00;99.90;;;;;;5050661;28;20246;-63
2020/12/11 07:31:46;;;;;;;32.53;17.27;;;0.00;99.90;;;;;;5050743;28;20557;-63
2020/12/11 07:34:20;;;;;;;15.73;8.37;;;0.00;99.90;;;;;;5050931;28;20174;-63
2020/12/11 07:36:55;;;;;;;32.70;14.77;;;0.00;99.90;;;;;;5050609;28;20207;-62
2020/12/11 07:39:26;;;;;;;32.20;16.87;;;0.00;99.90;;;;;;5051087;28;20268;-63
2020/12/11 07:41:52;;;;;;;23.80;12.30;;;0.00;99.90;;;;;;5076832;22;20313;-65
2020/12/11 07:44:21;;;;;;;37.80;19.47;;;0.10;99.90;;;;;;5062078;28;20173;-65
2020/12/11 07:46:46;;;;;;;23.83;13.53;;;0.10;99.90;;;;;;5061582;28;20607;-65
2020/12/11 07:49:12;;;;;;;23.17;12.73;;;0.10;99.90;;;;;;5062436;28;20204;-65
2020/12/11 07:51:45;;;;;;;27.80;14.03;;;0.10;99.90;;;;;;5062732;28;20312;-65
2020/12/11 07:54:10;;;;;;;18.87;10.73;;;0.00;99.90;;;;;;5062394;28;20177;-65
2020/12/11 07:56:36;;;;;;;23.67;13.87;;;0.00;99.90;;;;;;5060248;28;20577;-64
2020/12/11 07:59:12;;;;;;;27.97;14.80;;;0.10;99.90;;;;;;5059914;28;20185;-64
2020/12/11 08:01:38;;;;;;;28.30;14.53;;;0.10;99.90;;;;;;5059681;28;20232;-64
2020/12/11 08:04:04;;;;;;;16.90;7.70;;;0.10;99.90;;;;;;5058963;28;20660;-64
2020/12/11 08:06:30;;;;;;;22.53;12.20;;;0.00;99.90;;;;;;5059163;28;20177;-65
2020/12/11 08:08:56;;;;;;;23.07;13.33;;;0.10;99.90;;;;;;5059211;28;20197;-65
2020/12/11 08:11:25;;;;;;;14.33;6.67;;;0.10;99.90;;;;;;5058694;28;20202;-65
2020/12/11 08:14:04;;;;;;;32.20;17.70;;;0.10;99.90;;;;;;5059334;28;20574;-65
2020/12/11 08:16:30;;;;;;;18.93;9.93;;;0.10;99.90;;;;;;5060088;28;20176;-64
2020/12/11 08:18:56;;;;;;;26.37;12.83;;;0.10;99.90;;;;;;5059575;28;20174;-65
2020/12/11 08:21:32;;;;;;;22.30;13.20;;;0.10;99.90;;;;;;5058219;28;20212;-65
2020/12/11 08:23:59;;;;;;;32.63;16.93;;;0.10;99.90;;;;;;5059242;28;20173;-65
2020/12/11 08:26:26;;;;;;;31.90;15.73;;;0.10;99.90;;;;;;5059373;28;20173;-65
2020/12/11 08:29:07;;;;;;;23.73;11.50;;;0.20;99.90;;;;;;5058261;28;20558;-65
2020/12/11 08:31:42;;;;;;;25.37;12.10;;;0.20;99.90;;;;;;5058446;28;20680;-65
2020/12/11 08:34:10;;;;;;;20.80;12.50;;;0.20;99.90;;;;;;5059441;28;20169;-64
2020/12/11 08:36:41;;;;;;;26.30;13.53;;;0.10;99.90;;;;;;5058803;28;20172;-65
2020/12/11 08:39:08;;;;;;;24.83;12.50;;;0.10;99.90;;;;;;5059239;28;20179;-65
2020/12/11 08:41:38;;;;;;;29.77;16.30;;;0.20;99.90;;;;;;5059322;28;20213;-64
2020/12/11 08:44:08;;;;;;;16.87;9.20;;;0.20;99.90;;;;;;5059062;28;20661;-65
2020/12/11 08:46:53;;;;;;;21.13;11.10;;;0.20;99.90;;;;;;5058948;28;20189;-65
2020/12/11 08:49:22;;;;;;;13.17;8.17;;;0.20;99.90;;;;;;5058783;28;20254;-65
2020/12/11 08:51:48;;;;;;;20.43;8.90;;;0.20;99.90;;;;;;5057822;28;20192;-66
2020/12/11 08:54:14;;;;;;;25.87;16.80;;;0.20;99.90;;;;;;5059004;28;20169;-64
2020/12/11 08:56:46;;;;;;;23.90;11.97;;;0.20;99.90;;;;;;5058917;28;20173;-63
2020/12/11 08:59:11;;;;;;;33.20;17.53;;;0.30;99.90;;;;;;5061103;28;20215;-63
2020/12/11 09:01:40;;;;;;;16.23;8.87;;;0.20;99.90;;;;;;5058986;28;20193;-63
2020/12/11 09:04:05;;;;;;;28.43;15.87;;;0.30;99.90;;;;;;5058005;28;20585;-64
2020/12/11 09:06:31;;;;;;;23.77;11.90;;;0.30;99.90;;;;;;5058618;28;20300;-64
2020/12/11 09:08:56;;;;;;;13.83;7.53;;;0.40;99.90;;;;;;5055149;28;20227;-64
2020/12/11 09:11:22;;;;;;;24.37;13.30;;;0.30;99.90;;;;;;5057389;28;20546;-66
2020/12/11 09:13:47;;;;;;;25.27;12.40;;;0.40;99.90;;;;;;5056391;28;20205;-64
2020/12/11 09:16:13;;;;;;;24.67;12.77;;;0.30;99.90;;;;;;5058840;28;20707;-64
2020/12/11 09:18:38;;;;;;;17.40;9.40;;;0.40;99.90;;;;;;5057625;28;20182;-64
2020/12/11 09:21:04;;;;;;;24.43;12.47;;;0.50;99.90;;;;;;5055956;28;20736;-65
2020/12/11 09:23:29;;;;;;;15.07;8.70;;;0.50;99.90;;;;;;5056682;28;20560;-66
2020/12/11 09:25:55;;;;;;;17.33;10.07;;;0.50;99.90;;;;;;5058747;28;20227;-65
2020/12/11 09:28:22;;;;;;;16.37;8.77;;;0.50;99.90;;;;;;5058177;28;20165;-66
2020/12/11 09:30:48;;;;;;;22.30;12.23;;;0.50;99.90;;;;;;5056745;28;20177;-66
2020/12/11 09:33:20;;;;;;;11.47;6.77;;;0.50;99.90;;;;;;5058835;28;20211;-66
2020/12/11 09:35:45;;;;;;;12.47;7.40;;;0.40;99.90;;;;;;5058554;28;20324;-66
2020/12/11 09:38:11;;;;;;;14.50;8.13;;;0.50;99.90;;;;;;5058463;28;20256;-66
2020/12/11 09:40:47;;;;;;;16.00;9.47;;;0.50;99.90;;;;;;5058138;28;20181;-65
2020/12/11 09:46:11;;;;;;;10.83;6.77;;;0.60;99.90;;;;;;5057404;28;20179;-66
2020/12/11 09:48:45;;;;;;;16.70;8.83;;;0.50;99.90;;;;;;5038992;28;20393;-67
2020/12/11 09:51:26;;;;;;;24.73;13.10;;;0.50;99.90;;;;;;5057381;28;20316;-72
2020/12/11 09:56:25;;;;;;;23.33;14.03;;;0.60;99.90;;;;;;5062904;28;20259;-67
2020/12/11 09:59:01;;;;;;;22.97;11.60;;;0.70;99.90;;;;;;5062039;28;20181;-67
2020/12/11 10:04:16;;;;;;;17.87;10.77;;;0.70;99.90;;;;;;5025277;28;20200;-68
2020/12/11 10:06:42;;;;;;;9.20;5.97;;;0.70;99.90;;;;;;5062049;28;20177;-66
2020/12/11 10:09:07;;;;;;;10.50;6.80;;;0.70;99.90;;;;;;5060687;28;20206;-66
2020/12/11 10:11:34;;;;;;;14.23;7.97;;;0.70;99.90;;;;;;5059587;28;20204;-66
2020/12/11 10:16:43;;;;;;;18.63;9.53;;;0.70;99.90;;;;;;5060301;28;20227;-68
2020/12/11 10:19:10;;;;;;;18.73;10.10;;;0.70;99.90;;;;;;5061503;28;20181;-66
2020/12/11 10:21:36;;;;;;;10.20;6.50;;;0.60;99.90;;;;;;5058955;28;20538;-67
2020/12/11 10:24:01;;;;;;;9.83;6.57;;;0.60;99.90;;;;;;5061903;28;20617;-66
2020/12/11 10:26:27;;;;;;;16.03;9.70;;;0.70;99.90;;;;;;5061542;28;20169;-66
2020/12/11 10:28:52;;;;;;;16.57;7.90;;;0.70;99.90;;;;;;5057263;28;20202;-67
2020/12/11 10:31:18;;;;;;;15.67;7.57;;;0.70;99.90;;;;;;5061729;28;20567;-66
2020/12/11 10:33:45;;;;;;;23.33;13.10;;;0.60;99.90;;;;;;5060997;28;20558;-67
2020/12/11 10:36:10;;;;;;;15.93;9.33;;;0.70;99.90;;;;;;5061391;28;20584;-67
2020/12/11 10:38:36;;;;;;;16.30;8.63;;;0.60;99.90;;;;;;5061742;28;20181;-66
2020/12/11 10:41:01;;;;;;;25.77;12.83;;;0.70;99.90;;;;;;5058928;28;20217;-66
2020/12/11 10:43:27;;;;;;;13.07;6.10;;;0.70;99.90;;;;;;5061726;28;20181;-70
2020/12/11 10:45:52;;;;;;;13.13;7.53;;;0.70;99.90;;;;;;5061481;28;20186;-67
2020/12/11 10:48:18;;;;;;;17.70;9.17;;;0.70;99.90;;;;;;5063488;28;20192;-67
2020/12/11 10:50:43;;;;;;;19.77;9.37;;;0.70;99.90;;;;;;5063396;28;20282;-67
2020/12/11 10:53:09;;;;;;;11.90;6.43;;;0.70;99.90;;;;;;5056316;28;20201;-66
2020/12/11 10:55:34;;;;;;;25.27;13.27;;;0.70;99.90;;;;;;5059649;28;20584;-65
2020/12/11 10:58:00;;;;;;;17.30;8.03;;;0.80;99.90;;;;;;5061050;28;20174;-65
2020/12/11 11:00:25;;;;;;;23.13;11.60;;;0.70;99.90;;;;;;5060881;28;20242;-66
2020/12/11 11:02:50;;;;;;;26.53;14.17;;;0.70;99.90;;;;;;5057671;28;20201;-65
2020/12/11 11:05:16;;;;;;;23.57;10.30;;;0.70;99.90;;;;;;5060158;28;20197;-65
2020/12/11 11:07:42;;;;;;;19.20;10.30;;;0.80;99.90;;;;;;5063267;28;20718;-65
2020/12/11 11:12:42;;;;;;;16.90;8.93;;;0.80;99.90;;;;;;5063006;28;20245;-66
2020/12/11 11:20:49;;;;;;;22.27;12.90;;;0.80;99.90;;;;;;5060253;28;20196;-67
2020/12/11 11:28:34;;;;;;;10.27;5.87;;;0.90;99.90;;;;;;5060343;28;20207;-66
2020/12/11 11:30:59;;;;;;;21.87;11.93;;;0.80;99.90;;;;;;5060947;28;20184;-67
2020/12/11 11:33:25;;;;;;;17.60;9.90;;;0.80;99.90;;;;;;5060626;28;20629;-67
2020/12/11 11:35:50;;;;;;;15.30;8.37;;;0.70;99.90;;;;;;5059536;28;20188;-67
2020/12/11 11:38:19;;;;;;;22.67;11.80;;;0.80;99.90;;;;;;5057640;28;20285;-70
2020/12/11 11:40:45;;;;;;;13.27;7.67;;;0.70;99.90;;;;;;5059946;28;20174;-68
2020/12/11 11:43:11;;;;;;;21.80;11.83;;;0.70;99.90;;;;;;5050626;28;20244;-67
2020/12/11 11:45:38;;;;;;;7.20;4.90;;;0.70;99.90;;;;;;5051609;28;20180;-67
2020/12/11 11:48:09;;;;;;;17.10;9.80;;;0.80;99.90;;;;;;5049685;28;20190;-66
2020/12/11 11:50:46;;;;;;;17.70;9.00;;;0.80;99.90;;;;;;5051232;28;20669;-66
2020/12/11 11:53:21;;;;;;;15.27;8.57;;;0.70;99.90;;;;;;5052129;28;20177;-66
2020/12/11 11:55:47;;;;;;;13.73;6.43;;;0.70;99.90;;;;;;5052187;28;20174;-66
2020/12/11 11:58:14;;;;;;;13.73;6.50;;;0.80;99.90;;;;;;5051131;28;20169;-64
2020/12/11 12:00:40;;;;;;;19.30;9.13;;;0.70;99.90;;;;;;5051509;28;20177;-64
2020/12/11 12:03:06;;;;;;;16.20;8.37;;;0.70;99.90;;;;;;5051453;28;20181;-63
2020/12/11 12:05:32;;;;;;;16.10;7.50;;;0.70;99.90;;;;;;5051617;28;20178;-65
2020/12/11 12:07:58;;;;;;;22.60;10.90;;;0.70;99.90;;;;;;5051405;28;20166;-66
2020/12/11 12:10:23;;;;;;;18.87;9.33;;;0.70;99.90;;;;;;5051184;28;20212;-64
2020/12/11 12:12:49;;;;;;;21.67;11.30;;;0.70;99.90;;;;;;5050365;28;20347;-63
2020/12/11 12:15:18;;;;;;;19.13;9.63;;;0.70;99.90;;;;;;5050900;28;20173;-64
2020/12/11 12:17:52;;;;;;;25.63;13.53;;;0.70;99.90;;;;;;5051481;28;20170;-64
2020/12/11 12:20:25;;;;;;;20.77;10.13;;;0.70;99.90;;;;;;5051320;28;20180;-64
2020/12/11 12:30:50;;;;;;;23.23;12.53;;;0.70;99.90;;;;;;5051147;28;20249;-65
2020/12/11 12:33:55;;;;;;;21.77;11.60;;;0.80;99.90;;;;;;5052137;28;20193;-65
2020/12/11 12:43:57;;;;;;;21.77;10.67;;;0.80;99.90;;;;;;5051375;28;20277;-65
2020/12/11 12:46:22;;;;;;;23.90;12.00;;;0.80;99.90;;;;;;5052545;28;20494;-65
2020/12/11 12:48:48;;;;;;;25.50;13.47;;;0.70;99.90;;;;;;5050669;28;20201;-64
2020/12/11 12:51:13;;;;;;;20.90;12.47;;;0.70;99.90;;;;;;5050296;28;20197;-64
2020/12/11 12:53:39;;;;;;;27.70;14.93;;;0.70;99.90;;;;;;5050907;28;20189;-64
2020/12/11 12:56:52;;;;;;;18.03;9.97;;;0.70;99.90;;;;;;5050381;28;20170;-65
2020/12/11 12:58:53;;;;;;;21.00;11.27;;;0.80;99.90;;;;;;5035959;28;20331;-64
2020/12/11 13:01:48;;;;;;;18.60;8.50;;;0.70;99.90;;;;;;5047693;28;20198;-66
2020/12/11 13:06:58;;;;;;;25.40;12.73;;;0.70;99.90;;;;;;5047694;28;20212;-67
2020/12/11 13:09:23;;;;;;;19.00;11.73;;;0.70;99.90;;;;;;5048236;28;20204;-67
2020/12/11 13:11:50;;;;;;;18.57;9.73;;;0.70;99.90;;;;;;5049537;28;20804;-67
2020/12/11 13:14:16;;;;;;;21.67;11.17;;;0.70;99.90;;;;;;5049399;28;20185;-67
2020/12/11 13:16:42;;;;;;;24.20;12.07;;;0.70;99.90;;;;;;5049556;28;20324;-66
2020/12/11 13:19:11;;;;;;;23.73;12.63;;;0.70;99.90;;;;;;5050324;28;20173;-67
2020/12/11 13:21:42;;;;;;;27.33;13.97;;;0.70;99.90;;;;;;5048709;28;20209;-66
2020/12/11 13:26:54;;;;;;;21.57;12.43;;;0.80;99.90;;;;;;5032504;28;20304;-68
2020/12/11 13:29:19;;;;;;;16.47;8.30;;;0.80;99.90;;;;;;5049993;28;20197;-65
2020/12/11 13:31:45;;;;;;;22.60;12.23;;;0.70;99.90;;;;;;5029254;28;20292;-65
2020/12/11 13:34:11;;;;;;;18.37;10.30;;;0.60;99.90;;;;;;5052038;28;20174;-66
2020/12/11 13:36:37;;;;;;;23.37;10.63;;;0.60;99.90;;;;;;5059719;28;20567;-67
2020/12/11 13:39:05;;;;;;;17.63;10.27;;;0.70;99.90;;;;;;5056390;28;20174;-66
2020/12/11 13:41:30;;;;;;;14.47;8.17;;;0.60;99.90;;;;;;5071769;22;20220;-61
2020/12/11 13:43:56;;;;;;;14.90;8.30;;;0.70;99.90;;;;;;5070064;28;20254;-60
2020/12/11 13:46:21;;;;;;;21.80;11.10;;;0.60;99.90;;;;;;5070323;28;20698;-61
2020/12/11 13:48:47;;;;;;;14.87;8.57;;;0.60;99.90;;;;;;5069825;28;20626;-62
2020/12/11 13:51:15;;;;;;;15.60;9.37;;;0.60;99.90;;;;;;5069659;28;20543;-61
2020/12/11 13:53:40;;;;;;;17.03;7.23;;;0.70;99.90;;;;;;5051738;28;20172;-61
2020/12/11 13:56:06;;;;;;;26.73;14.63;;;0.70;99.90;;;;;;5050083;28;20173;-63
2020/12/11 13:58:31;;;;;;;18.57;10.07;;;0.70;99.90;;;;;;5050001;28;20568;-61
2020/12/11 14:00:57;;;;;;;15.57;8.57;;;0.70;99.90;;;;;;5049662;28;20170;-62
2020/12/11 14:03:22;;;;;;;20.30;12.37;;;0.60;99.90;;;;;;5044891;28;20229;-63
2020/12/11 14:05:47;;;;;;;11.10;7.30;;;0.60;99.90;;;;;;5047085;28;20203;-63
2020/12/11 14:08:13;;;;;;;22.10;11.77;;;0.70;99.90;;;;;;5049500;28;20546;-63
2020/12/11 14:10:38;;;;;;;19.87;9.70;;;0.60;99.90;;;;;;5049211;28;20227;-63
2020/12/11 14:13:04;;;;;;;26.60;14.47;;;0.60;99.90;;;;;;5048093;28;20634;-63
2020/12/11 14:15:29;;;;;;;24.83;14.00;;;0.60;99.90;;;;;;5047985;28;20192;-63
2020/12/11 14:18:06;;;;;;;17.57;9.00;;;0.60;99.90;;;;;;5047887;28;20582;-63
2020/12/11 14:20:39;;;;;;;13.30;7.40;;;0.60;99.90;;;;;;5049616;28;20189;-63
2020/12/11 14:23:10;;;;;;;19.33;11.40;;;0.60;99.90;;;;;;5049509;28;20205;-63
2020/12/11 14:25:35;;;;;;;18.93;9.90;;;0.60;99.90;;;;;;5049353;28;20231;-63
2020/12/11 14:28:01;;;;;;;25.77;13.03;;;0.60;99.90;;;;;;5049355;28;20653;-64
2020/12/11 14:30:27;;;;;;;24.30;12.93;;;0.60;99.90;;;;;;5048920;28;20216;-64
2020/12/11 14:32:52;;;;;;;22.07;12.83;;;0.70;99.90;;;;;;5050114;28;20247;-63
2020/12/11 14:35:19;;;;;;;26.23;13.93;;;0.70;99.90;;;;;;5049563;28;20253;-63
2020/12/11 14:37:46;;;;;;;20.03;11.07;;;0.60;99.90;;;;;;5052309;28;20295;-64
2020/12/11 14:40:15;;;;;;;24.40;12.90;;;0.70;99.90;;;;;;5053656;28;20182;-62
2020/12/11 14:42:41;;;;;;;18.57;10.77;;;0.60;99.90;;;;;;5052059;28;20230;-64
2020/12/11 14:45:06;;;;;;;15.97;9.57;;;0.60;99.90;;;;;;5053130;28;20329;-64
2020/12/11 14:47:32;;;;;;;27.23;13.93;;;0.60;99.90;;;;;;5049282;28;20251;-64
2020/12/11 14:49:57;;;;;;;26.30;11.67;;;0.60;99.90;;;;;;5044639;28;20201;-64
2020/12/11 14:52:24;;;;;;;25.13;13.40;;;0.60;99.90;;;;;;5051089;28;20483;-64
2020/12/11 14:54:50;;;;;;;30.47;15.07;;;0.60;99.90;;;;;;5042600;28;20176;-63